createdAt,value
2017-05-18T00:01:11.291Z,15.2
2017-05-18T00:02:29.965Z,15.2
2017-05-18T00:03:48.620Z,15.2
2017-05-18T00:05:07.342Z,15.3
2017-05-18T00:06:26.041Z,15.3
2017-05-18T00:07:44.701Z,15.3
2017-05-18T00:09:03.371Z,15.3
2017-05-18T00:10:22.031Z,15.3
2017-05-18T00:11:40.730Z,15.3
2017-05-18T00:12:59.394Z,15.3
2017-05-18T00:14:18.051Z,15.3
2017-05-18T00:15:36.734Z,15.3
2017-05-18T00:16:55.395Z,15.3
2017-05-18T00:18:14.129Z,15.3
2017-05-18T00:19:32.844Z,15.3
2017-05-18T00:20:51.573Z,15.4
2017-05-18T00:22:10.227Z,15.4
2017-05-18T00:23:28.916Z,15.4
2017-05-18T00:24:47.613Z,15.4
2017-05-18T00:26:06.271Z,15.4
2017-05-18T00:27:24.966Z,15.3
2017-05-18T00:28:43.623Z,15.3
2017-05-18T00:30:02.331Z,15.3
2017-05-18T00:31:20.989Z,15.3
2017-05-18T00:32:39.654Z,15.3
2017-05-18T00:33:58.311Z,15.2
2017-05-18T00:35:17.023Z,15.2
2017-05-18T00:36:35.712Z,15.2
2017-05-18T00:37:54.415Z,15.3
2017-05-18T00:39:13.089Z,15.3
2017-05-18T00:40:31.743Z,15.3
2017-05-18T00:41:50.401Z,15.3
2017-05-18T00:43:09.098Z,15.3
2017-05-18T00:44:27.796Z,15.3
2017-05-18T00:45:46.459Z,15.3
2017-05-18T00:47:05.118Z,15.4
2017-05-18T00:48:23.784Z,15.3
2017-05-18T00:49:42.452Z,15.3
2017-05-18T00:51:01.118Z,15.3
2017-05-18T00:52:19.814Z,15.3
2017-05-18T00:53:38.521Z,15.3
2017-05-18T00:54:57.180Z,15.3
2017-05-18T00:56:15.897Z,15.2
2017-05-18T00:57:34.555Z,15.2
2017-05-18T00:58:53.208Z,15.2
2017-05-18T01:00:11.868Z,15.2
2017-05-18T01:01:30.555Z,15.2
2017-05-18T01:02:49.219Z,15.2
2017-05-18T01:04:07.877Z,15.1
2017-05-18T01:05:26.549Z,15.1
2017-05-18T01:06:45.206Z,15.1
2017-05-18T01:08:03.935Z,15.1
2017-05-18T01:09:22.609Z,15.1
2017-05-18T01:10:41.287Z,15.1
2017-05-18T01:11:59.998Z,15.2
2017-05-18T01:13:18.648Z,15.1
2017-05-18T01:14:37.382Z,15.1
2017-05-18T01:15:56.050Z,15
2017-05-18T01:17:14.713Z,15
2017-05-18T01:18:33.373Z,15
2017-05-18T01:19:52.028Z,15
2017-05-18T01:21:10.718Z,15.1
2017-05-18T01:22:29.381Z,15
2017-05-18T01:23:48.050Z,15
2017-05-18T01:25:06.712Z,15
2017-05-18T01:26:25.372Z,15
2017-05-18T01:27:44.057Z,15.1
2017-05-18T01:29:02.715Z,15.1
2017-05-18T01:30:21.372Z,15.1
2017-05-18T01:31:40.079Z,15.1
2017-05-18T01:32:58.739Z,15.1
2017-05-18T01:34:17.422Z,15.1
2017-05-18T01:35:36.102Z,15.1
2017-05-18T01:36:54.759Z,15.1
2017-05-18T01:38:13.419Z,15.1
2017-05-18T01:39:32.098Z,15.1
2017-05-18T01:40:50.757Z,15.1
2017-05-18T01:42:09.457Z,15.1
2017-05-18T01:43:28.148Z,15.1
2017-05-18T01:44:46.806Z,15.2
2017-05-18T01:46:05.468Z,15.2
2017-05-18T01:47:24.139Z,15.2
2017-05-18T01:48:42.834Z,15.2
2017-05-18T01:50:01.549Z,15.3
2017-05-18T01:51:20.252Z,15.3
2017-05-18T01:52:38.943Z,15.2
2017-05-18T01:53:57.602Z,15.2
2017-05-18T01:55:16.259Z,15.2
2017-05-18T01:56:34.922Z,15.2
2017-05-18T01:57:53.580Z,15.2
2017-05-18T01:59:12.297Z,15.2
2017-05-18T02:00:30.982Z,15.1
2017-05-18T02:01:49.660Z,15.1
2017-05-18T02:03:08.325Z,15
2017-05-18T02:04:27.038Z,15
2017-05-18T02:05:45.695Z,15
2017-05-18T02:07:04.405Z,15
2017-05-18T02:08:23.078Z,15
2017-05-18T02:09:41.732Z,15.1
2017-05-18T02:11:00.451Z,15.1
2017-05-18T02:12:19.133Z,15.1
2017-05-18T02:13:37.843Z,15
2017-05-18T02:14:56.551Z,15
2017-05-18T02:16:15.202Z,15
2017-05-18T02:17:33.882Z,14.9
2017-05-18T02:18:52.552Z,14.9
2017-05-18T02:20:11.214Z,14.9
2017-05-18T02:21:29.930Z,14.9
2017-05-18T02:22:48.590Z,14.9
2017-05-18T02:24:07.301Z,14.9
2017-05-18T02:25:25.961Z,14.9
2017-05-18T02:26:44.625Z,14.9
2017-05-18T02:28:03.307Z,14.9
2017-05-18T02:29:21.965Z,14.9
2017-05-18T02:30:40.670Z,14.9
2017-05-18T02:31:59.370Z,14.9
2017-05-18T02:33:18.027Z,14.8
2017-05-18T02:34:36.679Z,14.8
2017-05-18T02:35:55.362Z,14.8
2017-05-18T02:37:14.076Z,14.7
2017-05-18T02:38:32.735Z,14.7
2017-05-18T02:39:51.395Z,14.6
2017-05-18T02:41:10.058Z,14.5
2017-05-18T02:42:28.748Z,14.4
2017-05-18T02:43:47.415Z,14.3
2017-05-18T02:45:06.076Z,14.2
2017-05-18T02:46:24.743Z,14.1
2017-05-18T02:47:43.393Z,14.1
2017-05-18T02:49:02.047Z,14.1
2017-05-18T02:50:20.728Z,14.2
2017-05-18T02:51:39.438Z,14.2
2017-05-18T02:52:58.096Z,14.2
2017-05-18T02:54:16.794Z,14.2
2017-05-18T02:55:35.458Z,14.1
2017-05-18T02:56:54.159Z,14.1
2017-05-18T02:58:12.837Z,14.1
2017-05-18T02:59:31.549Z,14.1
2017-05-18T03:00:50.211Z,14.2
2017-05-18T03:02:08.900Z,14.2
2017-05-18T03:03:27.560Z,14.1
2017-05-18T03:04:46.236Z,14.2
2017-05-18T03:06:04.898Z,14.2
2017-05-18T03:07:23.557Z,14.2
2017-05-18T03:08:42.214Z,14.2
2017-05-18T03:10:00.885Z,14.2
2017-05-18T03:11:19.550Z,14.1
2017-05-18T03:12:38.210Z,14.1
2017-05-18T03:13:56.918Z,14
2017-05-18T03:15:15.583Z,14
2017-05-18T03:16:34.259Z,14
2017-05-18T03:17:52.923Z,14
2017-05-18T03:19:11.592Z,14
2017-05-18T03:20:30.306Z,14
2017-05-18T03:21:48.990Z,14
2017-05-18T03:23:07.645Z,14
2017-05-18T03:24:26.310Z,14
2017-05-18T03:25:45.030Z,14
2017-05-18T03:27:03.752Z,14
2017-05-18T03:28:22.436Z,14
2017-05-18T03:29:41.109Z,14
2017-05-18T03:30:59.770Z,14
2017-05-18T03:32:18.425Z,14
2017-05-18T03:33:37.116Z,14
2017-05-18T03:34:55.777Z,14
2017-05-18T03:36:14.482Z,14
2017-05-18T03:37:33.166Z,14.1
2017-05-18T03:38:51.832Z,14.2
2017-05-18T03:40:10.544Z,14.2
2017-05-18T03:41:29.205Z,14.2
2017-05-18T03:42:47.884Z,14.3
2017-05-18T03:44:06.549Z,14.3
2017-05-18T03:45:25.241Z,14.4
2017-05-18T03:46:43.962Z,14.5
2017-05-18T03:48:02.622Z,14.5
2017-05-18T03:49:21.323Z,14.5
2017-05-18T03:50:39.982Z,14.5
2017-05-18T03:51:58.641Z,14.5
2017-05-18T03:53:17.374Z,14.5
2017-05-18T03:54:36.029Z,14.4
2017-05-18T03:55:54.686Z,14.4
2017-05-18T03:57:13.371Z,14.4
2017-05-18T03:58:32.030Z,14.4
2017-05-18T03:59:50.685Z,14.4
2017-05-18T04:01:09.350Z,14.3
2017-05-18T04:02:28.009Z,14.4
2017-05-18T04:03:46.669Z,14.4
2017-05-18T04:05:05.328Z,14.4
2017-05-18T04:06:24.063Z,14.4
2017-05-18T04:07:42.735Z,14.5
2017-05-18T04:09:01.395Z,14.4
2017-05-18T04:10:20.057Z,14.5
2017-05-18T04:11:38.761Z,14.5
2017-05-18T04:12:57.483Z,14.6
2017-05-18T04:14:16.142Z,14.8
2017-05-18T04:15:34.848Z,14.8
2017-05-18T04:16:53.569Z,14.9
2017-05-18T04:18:12.280Z,14.9
2017-05-18T04:19:30.935Z,14.9
2017-05-18T04:20:49.593Z,14.9
2017-05-18T04:22:08.253Z,14.9
2017-05-18T04:23:26.929Z,14.9
2017-05-18T04:24:45.594Z,14.9
2017-05-18T04:26:04.329Z,14.9
2017-05-18T04:27:22.997Z,15
2017-05-18T04:28:41.654Z,15.2
2017-05-18T04:30:00.365Z,15.2
2017-05-18T04:31:19.056Z,15.3
2017-05-18T04:32:37.742Z,15.3
2017-05-18T04:33:56.442Z,15.4
2017-05-18T04:35:15.106Z,15.4
2017-05-18T04:36:33.899Z,15.4
2017-05-18T04:37:52.561Z,15.4
2017-05-18T04:39:11.226Z,15.4
2017-05-18T04:40:29.925Z,15.4
2017-05-18T04:41:48.586Z,15.5
2017-05-18T04:43:07.300Z,15.6
2017-05-18T04:44:25.957Z,15.7
2017-05-18T04:45:44.616Z,15.7
2017-05-18T04:47:03.327Z,15.7
2017-05-18T04:48:22.015Z,15.7
2017-05-18T04:49:40.672Z,15.7
2017-05-18T04:50:59.332Z,15.8
2017-05-18T04:52:18.037Z,15.8
2017-05-18T04:53:36.712Z,15.9
2017-05-18T04:54:55.370Z,15.9
2017-05-18T04:56:14.055Z,15.9
2017-05-18T04:57:32.739Z,15.9
2017-05-18T04:58:51.396Z,16
2017-05-18T05:00:10.082Z,16
2017-05-18T05:01:28.792Z,16.1
2017-05-18T05:02:47.517Z,16.2
2017-05-18T05:04:06.221Z,16.2
2017-05-18T05:05:24.882Z,16.2
2017-05-18T05:06:43.592Z,16.2
2017-05-18T05:08:02.304Z,21.7
2017-05-18T05:09:20.964Z,19.2
2017-05-18T05:10:39.617Z,18
2017-05-18T05:11:58.270Z,17.3
2017-05-18T05:13:16.934Z,16.9
2017-05-18T05:14:35.595Z,16.8
2017-05-18T05:15:54.254Z,16.6
2017-05-18T05:17:12.909Z,16.6
2017-05-18T05:18:31.568Z,16.5
2017-05-18T05:19:50.239Z,16.5
2017-05-18T05:21:08.983Z,16.6
2017-05-18T05:22:27.688Z,16.5
2017-05-18T05:23:46.378Z,16.6
2017-05-18T05:25:05.038Z,16.7
2017-05-18T05:26:23.697Z,16.9
2017-05-18T05:27:42.424Z,16.9
2017-05-18T05:29:01.096Z,16.9
2017-05-18T05:30:19.756Z,16.9
2017-05-18T05:31:38.427Z,16.9
2017-05-18T05:32:57.100Z,17
2017-05-18T05:34:15.755Z,17
2017-05-18T05:35:34.468Z,17
2017-05-18T05:36:53.130Z,17
2017-05-18T05:38:11.829Z,17.1
2017-05-18T05:39:30.518Z,17.2
2017-05-18T05:40:49.226Z,17.3
2017-05-18T05:42:07.884Z,17.3
2017-05-18T05:43:26.561Z,17.4
2017-05-18T05:44:45.224Z,17.5
2017-05-18T05:46:03.911Z,17.6
2017-05-18T05:47:22.572Z,17.7
2017-05-18T05:48:41.229Z,17.7
2017-05-18T05:49:59.895Z,17.7
2017-05-18T05:51:18.563Z,17.7
2017-05-18T05:52:37.259Z,17.8
2017-05-18T05:53:55.963Z,17.8
2017-05-18T05:55:14.639Z,17.8
2017-05-18T05:56:33.296Z,17.9
2017-05-18T05:57:51.958Z,18
2017-05-18T05:59:10.618Z,18
2017-05-18T06:00:29.297Z,18.1
2017-05-18T06:01:47.958Z,18.1
2017-05-18T06:03:06.618Z,18.2
2017-05-18T06:04:25.311Z,18.3
2017-05-18T06:05:44.005Z,18.3
2017-05-18T06:07:02.688Z,18.4
2017-05-18T06:08:21.394Z,18.4
2017-05-18T06:09:40.051Z,18.4
2017-05-18T06:10:58.751Z,18.5
2017-05-18T06:12:17.437Z,18.6
2017-05-18T06:13:36.133Z,18.7
2017-05-18T06:14:54.827Z,18.7
2017-05-18T06:16:13.492Z,18.7
2017-05-18T06:17:32.153Z,18.8
2017-05-18T06:18:50.823Z,18.8
2017-05-18T06:20:09.515Z,18.8
2017-05-18T06:21:28.171Z,18.9
2017-05-18T06:22:46.842Z,18.9
2017-05-18T06:24:05.556Z,18.9
2017-05-18T06:25:24.264Z,19
2017-05-18T06:26:42.950Z,19
2017-05-18T06:28:01.611Z,19
2017-05-18T06:29:20.320Z,19
2017-05-18T06:30:39.008Z,19.1
2017-05-18T06:31:57.716Z,19.1
2017-05-18T06:33:16.408Z,19.2
2017-05-18T06:34:35.120Z,19.2
2017-05-18T06:35:53.796Z,19.3
2017-05-18T06:37:12.477Z,19.3
2017-05-18T06:38:31.195Z,19.4
2017-05-18T06:39:49.854Z,19.4
2017-05-18T06:41:08.559Z,19.4
2017-05-18T06:42:27.215Z,19.4
2017-05-18T06:43:45.882Z,19.5
2017-05-18T06:45:04.571Z,19.5
2017-05-18T06:46:23.286Z,19.6
2017-05-18T06:47:41.942Z,19.6
2017-05-18T06:49:00.598Z,19.7
2017-05-18T06:50:19.254Z,19.8
2017-05-18T06:51:37.957Z,19.9
2017-05-18T06:52:56.621Z,19.8
2017-05-18T06:54:15.321Z,19.9
2017-05-18T06:55:34.050Z,19.8
2017-05-18T06:56:52.703Z,19.9
2017-05-18T06:58:11.379Z,19.9
2017-05-18T06:59:30.038Z,19.9
2017-05-18T07:00:48.694Z,20
2017-05-18T07:02:07.391Z,20
2017-05-18T07:03:26.058Z,20
2017-05-18T07:04:44.720Z,20.1
2017-05-18T07:06:03.389Z,20.2
2017-05-18T07:07:22.048Z,20.3
2017-05-18T07:08:40.708Z,20.3
2017-05-18T07:09:59.391Z,20.3
2017-05-18T07:11:18.046Z,20.4
2017-05-18T07:12:36.705Z,20.4
2017-05-18T07:13:55.364Z,20.5
2017-05-18T07:15:14.055Z,20.5
2017-05-18T07:16:32.712Z,20.6
2017-05-18T07:17:51.364Z,20.8
2017-05-18T07:19:10.027Z,20.8
2017-05-18T07:20:28.738Z,20.8
2017-05-18T07:21:47.486Z,20.8
2017-05-18T07:23:06.144Z,20.8
2017-05-18T07:24:24.803Z,20.9
2017-05-18T07:25:43.528Z,20.9
2017-05-18T07:27:02.188Z,21
2017-05-18T07:28:20.847Z,21.1
2017-05-18T07:29:39.551Z,21.2
2017-05-18T07:30:58.215Z,21.2
2017-05-18T07:32:16.932Z,21.2
2017-05-18T07:33:35.642Z,21.3
2017-05-18T07:34:54.309Z,21.3
2017-05-18T07:36:12.976Z,21.4
2017-05-18T07:37:31.639Z,21.4
2017-05-18T07:38:50.342Z,21.4
2017-05-18T07:40:09.045Z,21.5
2017-05-18T07:41:27.759Z,21.5
2017-05-18T07:42:46.422Z,21.6
2017-05-18T07:44:05.075Z,21.7
2017-05-18T07:45:23.739Z,21.6
2017-05-18T07:46:42.435Z,21.6
2017-05-18T07:48:01.147Z,21.6
2017-05-18T07:49:19.863Z,21.6
2017-05-18T07:50:38.562Z,21.7
2017-05-18T07:51:57.234Z,21.7
2017-05-18T07:53:15.887Z,21.7
2017-05-18T07:54:34.555Z,21.8
2017-05-18T07:55:53.213Z,21.9
2017-05-18T07:57:11.917Z,22
2017-05-18T07:58:30.573Z,22
2017-05-18T07:59:49.231Z,22
2017-05-18T08:01:07.894Z,22
2017-05-18T08:02:26.574Z,22
2017-05-18T08:03:45.270Z,22
2017-05-18T08:05:03.958Z,22
2017-05-18T08:06:22.614Z,22
2017-05-18T08:07:41.285Z,22
2017-05-18T08:08:59.937Z,22.2
2017-05-18T08:10:18.589Z,22.3
2017-05-18T08:11:37.304Z,22.4
2017-05-18T08:12:55.997Z,22.4
2017-05-18T08:14:14.658Z,22.4
2017-05-18T08:15:33.363Z,22.4
2017-05-18T08:16:52.030Z,22.3
2017-05-18T08:18:10.683Z,22.4
2017-05-18T08:19:29.402Z,22.4
2017-05-18T08:20:48.116Z,22.5
2017-05-18T08:22:06.811Z,22.5
2017-05-18T08:23:25.465Z,22.5
2017-05-18T08:24:44.146Z,22.6
2017-05-18T08:26:02.813Z,22.7
2017-05-18T08:27:21.471Z,22.8
2017-05-18T08:28:40.137Z,22.8
2017-05-18T08:29:58.845Z,23
2017-05-18T08:31:17.553Z,23
2017-05-18T08:32:36.214Z,22.9
2017-05-18T08:33:54.892Z,23
2017-05-18T08:35:13.551Z,23
2017-05-18T08:36:32.213Z,23.1
2017-05-18T08:37:50.900Z,23.1
2017-05-18T08:39:09.613Z,23.1
2017-05-18T08:40:28.317Z,23.1
2017-05-18T08:41:46.981Z,23.2
2017-05-18T08:43:05.672Z,23.2
2017-05-18T08:44:24.391Z,23.2
2017-05-18T08:45:43.109Z,23.2
2017-05-18T08:47:01.809Z,23.1
2017-05-18T08:48:20.463Z,23.1
2017-05-18T08:49:39.134Z,23
2017-05-18T08:50:57.800Z,23.1
2017-05-18T08:52:16.461Z,23.1
2017-05-18T08:53:35.139Z,23.1
2017-05-18T08:54:53.815Z,23.2
2017-05-18T08:56:12.511Z,23.2
2017-05-18T08:57:31.178Z,23.2
2017-05-18T08:58:49.842Z,23.2
2017-05-18T09:00:08.551Z,23.2
2017-05-18T09:01:27.220Z,23.2
2017-05-18T09:02:45.931Z,23.1
2017-05-18T09:04:04.592Z,23.2
2017-05-18T09:05:23.247Z,23.2
2017-05-18T09:06:41.908Z,23.2
2017-05-18T09:08:00.564Z,23.1
2017-05-18T09:09:19.243Z,23.1
2017-05-18T09:10:37.898Z,23.1
2017-05-18T09:11:56.560Z,23.2
2017-05-18T09:13:15.238Z,23.3
2017-05-18T09:14:33.974Z,23.3
2017-05-18T09:15:52.643Z,23.4
2017-05-18T09:17:11.300Z,23.4
2017-05-18T09:18:29.964Z,23.5
2017-05-18T09:19:48.617Z,23.5
2017-05-18T09:21:07.286Z,23.7
2017-05-18T09:22:25.936Z,23.8
2017-05-18T09:23:44.612Z,23.9
2017-05-18T09:25:03.295Z,24
2017-05-18T09:26:21.971Z,24.1
2017-05-18T09:27:40.634Z,24.1
2017-05-18T09:28:59.348Z,24.2
2017-05-18T09:30:18.013Z,24.2
2017-05-18T09:31:36.713Z,24.2
2017-05-18T09:32:55.373Z,24.2
2017-05-18T09:34:14.088Z,24.2
2017-05-18T09:35:32.795Z,24.2
2017-05-18T09:36:51.450Z,24.3
2017-05-18T09:38:10.104Z,24.3
2017-05-18T09:39:28.775Z,24.3
2017-05-18T09:40:47.447Z,24.4
2017-05-18T09:42:06.104Z,24.4
2017-05-18T09:43:24.758Z,24.4
2017-05-18T09:44:43.416Z,24.4
2017-05-18T09:46:02.082Z,24.5
2017-05-18T09:47:20.791Z,24.3
2017-05-18T09:48:39.445Z,24.3
2017-05-18T09:49:58.108Z,24.2
2017-05-18T09:51:16.798Z,24.2
2017-05-18T09:52:35.467Z,24.3
2017-05-18T09:53:54.143Z,24.4
2017-05-18T09:55:12.817Z,24.5
2017-05-18T09:56:31.478Z,24.6
2017-05-18T09:57:50.136Z,24.6
2017-05-18T09:59:08.838Z,24.6
2017-05-18T10:00:27.545Z,24.7
2017-05-18T10:01:46.212Z,24.7
2017-05-18T10:03:04.876Z,24.6
2017-05-18T10:04:23.558Z,24.6
2017-05-18T10:05:42.215Z,24.7
2017-05-18T10:07:00.924Z,24.7
2017-05-18T10:08:19.641Z,24.7
2017-05-18T10:09:38.324Z,24.8
2017-05-18T10:10:56.991Z,24.8
2017-05-18T10:12:15.648Z,24.8
2017-05-18T10:13:34.306Z,24.8
2017-05-18T10:14:52.958Z,24.8
2017-05-18T10:16:11.617Z,25
2017-05-18T10:17:30.313Z,25
2017-05-18T10:18:49.022Z,25
2017-05-18T10:20:07.688Z,25
2017-05-18T10:21:26.350Z,25
2017-05-18T10:22:45.011Z,25
2017-05-18T10:24:03.700Z,25.1
2017-05-18T10:25:22.393Z,25.1
2017-05-18T10:26:41.059Z,25.2
2017-05-18T10:27:59.720Z,25.2
2017-05-18T10:29:18.427Z,25.3
2017-05-18T10:30:37.089Z,25.3
2017-05-18T10:31:55.753Z,25.4
2017-05-18T10:33:14.455Z,25.5
2017-05-18T10:34:33.162Z,25.5
2017-05-18T10:35:51.878Z,25.6
2017-05-18T10:37:10.548Z,25.8
2017-05-18T10:38:29.206Z,25.8
2017-05-18T10:39:47.868Z,25.7
2017-05-18T10:41:06.547Z,25.7
2017-05-18T10:42:25.242Z,25.7
2017-05-18T10:43:43.981Z,25.8
2017-05-18T10:45:02.638Z,25.8
2017-05-18T10:46:21.308Z,25.9
2017-05-18T10:47:39.971Z,26
2017-05-18T10:48:58.633Z,26.1
2017-05-18T10:50:17.299Z,26.2
2017-05-18T10:51:35.954Z,26.2
2017-05-18T10:52:54.611Z,26.2
2017-05-18T10:54:13.296Z,26.3
2017-05-18T10:55:31.988Z,26.3
2017-05-18T10:56:50.677Z,26.5
2017-05-18T10:58:09.329Z,26.5
2017-05-18T10:59:27.979Z,26.5
2017-05-18T11:00:46.658Z,26.4
2017-05-18T11:02:05.367Z,26.5
2017-05-18T11:03:24.055Z,26.6
2017-05-18T11:04:42.715Z,26.7
2017-05-18T11:06:01.387Z,26.7
2017-05-18T11:07:20.048Z,26.7
2017-05-18T11:08:38.756Z,26.8
2017-05-18T11:09:57.436Z,26.6
2017-05-18T11:11:16.136Z,26.5
2017-05-18T11:12:34.792Z,26.5
2017-05-18T11:13:53.456Z,26.6
2017-05-18T11:15:12.118Z,26.7
2017-05-18T11:16:30.779Z,26.7
2017-05-18T11:17:49.433Z,26.7
2017-05-18T11:19:08.088Z,26.7
2017-05-18T11:20:26.747Z,26.8
2017-05-18T11:21:45.437Z,27
2017-05-18T11:23:04.122Z,27
2017-05-18T11:24:22.773Z,27
2017-05-18T11:25:41.484Z,27.1
2017-05-18T11:27:00.151Z,27.1
2017-05-18T11:28:18.880Z,27.1
2017-05-18T11:29:37.554Z,27.2
2017-05-18T11:30:56.227Z,27.3
2017-05-18T11:32:14.901Z,27.3
2017-05-18T11:33:33.561Z,27.3
2017-05-18T11:34:52.232Z,27.2
2017-05-18T11:36:10.891Z,27.3
2017-05-18T11:37:29.571Z,27.4
2017-05-18T11:38:48.223Z,27.5
2017-05-18T11:40:06.890Z,27.4
2017-05-18T11:41:25.586Z,27.6
2017-05-18T11:42:44.250Z,27.5
2017-05-18T11:44:02.912Z,27.6
2017-05-18T11:45:21.583Z,28.1
2017-05-18T11:46:40.244Z,28.6
2017-05-18T11:47:58.933Z,29.4
2017-05-18T11:49:17.640Z,30.1
2017-05-18T11:50:36.328Z,33.1
2017-05-18T11:51:55.035Z,34.6
2017-05-18T11:53:13.702Z,35.1
2017-05-18T11:54:32.390Z,35.5
2017-05-18T11:55:51.050Z,35.7
2017-05-18T11:57:09.701Z,35.8
2017-05-18T11:58:28.375Z,36.1
2017-05-18T11:59:47.042Z,36.1
2017-05-18T12:01:05.701Z,36.2
2017-05-18T12:02:24.358Z,36.4
2017-05-18T12:03:43.012Z,36.5
2017-05-18T12:05:01.679Z,36.5
2017-05-18T12:06:20.341Z,36.6
2017-05-18T12:07:39.034Z,36.5
2017-05-18T12:08:57.722Z,36.5
2017-05-18T12:10:16.384Z,36.4
2017-05-18T12:11:35.071Z,36.5
2017-05-18T12:12:53.742Z,36.6
2017-05-18T12:14:12.449Z,36.6
2017-05-18T12:15:31.152Z,36.6
2017-05-18T12:16:49.813Z,36.7
2017-05-18T12:18:08.500Z,36.6
2017-05-18T12:19:27.162Z,36.7
2017-05-18T12:20:45.818Z,36.7
2017-05-18T12:22:04.480Z,36.7
2017-05-18T12:23:23.155Z,36.8
2017-05-18T12:24:41.871Z,36.9
2017-05-18T12:26:00.556Z,36.9
2017-05-18T12:27:19.249Z,36.9
2017-05-18T12:28:37.913Z,36.9
2017-05-18T12:29:56.651Z,37
2017-05-18T12:31:15.313Z,37
2017-05-18T12:32:34.003Z,36.9
2017-05-18T12:33:52.664Z,36.8
2017-05-18T12:35:11.320Z,36.7
2017-05-18T12:36:30.037Z,36.9
2017-05-18T12:37:48.698Z,36.4
2017-05-18T12:39:07.437Z,36.4
2017-05-18T12:40:26.144Z,36
2017-05-18T12:41:44.843Z,36.3
2017-05-18T12:43:03.554Z,36.5
2017-05-18T12:44:22.217Z,36.7
2017-05-18T12:45:40.873Z,36.7
2017-05-18T12:46:59.559Z,36.9
2017-05-18T12:48:18.229Z,36.9
2017-05-18T12:49:36.890Z,36.9
2017-05-18T12:50:55.558Z,36.9
2017-05-18T12:52:14.210Z,37
2017-05-18T12:53:32.870Z,37.1
2017-05-18T12:54:51.560Z,36.6
2017-05-18T12:56:10.269Z,35.9
2017-05-18T12:57:28.990Z,36.3
2017-05-18T12:58:47.650Z,35.8
2017-05-18T13:00:06.342Z,35.3
2017-05-18T13:01:24.997Z,35.1
2017-05-18T13:02:43.662Z,35.7
2017-05-18T13:04:02.408Z,36.3
2017-05-18T13:05:21.060Z,36.6
2017-05-18T13:06:39.729Z,36.8
2017-05-18T13:07:58.394Z,36.9
2017-05-18T13:09:17.051Z,37.1
2017-05-18T13:10:35.728Z,37.1
2017-05-18T13:11:54.445Z,37.1
2017-05-18T13:13:13.106Z,37.1
2017-05-18T13:14:31.810Z,37
2017-05-18T13:15:50.519Z,36.9
2017-05-18T13:17:09.184Z,36.8
2017-05-18T13:18:27.843Z,36.9
2017-05-18T13:19:46.550Z,36.9
2017-05-18T13:21:05.204Z,36.9
2017-05-18T13:22:23.893Z,37
2017-05-18T13:23:42.554Z,37
2017-05-18T13:25:01.209Z,37.1
2017-05-18T13:26:19.869Z,37.2
2017-05-18T13:27:38.592Z,37.2
2017-05-18T13:28:57.295Z,37.3
2017-05-18T13:30:15.959Z,37.4
2017-05-18T13:31:34.626Z,37.3
2017-05-18T13:32:53.347Z,37.3
2017-05-18T13:34:12.019Z,37.1
2017-05-18T13:35:30.676Z,37
2017-05-18T13:36:49.337Z,37.1
2017-05-18T13:38:08.004Z,37.1
2017-05-18T13:39:26.659Z,37.2
2017-05-18T13:40:45.320Z,37.3
2017-05-18T13:42:04.012Z,37.4
2017-05-18T13:43:22.674Z,37.4
2017-05-18T13:44:41.329Z,37.4
2017-05-18T13:45:59.989Z,37.5
2017-05-18T13:47:18.699Z,37.4
2017-05-18T13:48:37.391Z,37.3
2017-05-18T13:49:56.084Z,37.3
2017-05-18T13:51:14.757Z,37
2017-05-18T13:52:33.410Z,36.4
2017-05-18T13:53:52.071Z,36.4
2017-05-18T13:55:10.728Z,36.6
2017-05-18T13:56:29.390Z,36.9
2017-05-18T13:57:48.046Z,37.1
2017-05-18T13:59:06.722Z,37.1
2017-05-18T14:00:25.407Z,36.8
2017-05-18T14:01:44.129Z,36.5
2017-05-18T14:03:02.849Z,36.7
2017-05-18T14:04:21.569Z,36.8
2017-05-18T14:05:40.232Z,37
2017-05-18T14:06:58.918Z,37.1
2017-05-18T14:08:17.583Z,37.2
2017-05-18T14:09:36.239Z,37.3
2017-05-18T14:10:54.937Z,37.3
2017-05-18T14:12:13.597Z,37.2
2017-05-18T14:13:32.311Z,37.1
2017-05-18T14:14:51.006Z,37.2
2017-05-18T14:16:09.660Z,37.2
2017-05-18T14:17:28.369Z,37.3
2017-05-18T14:18:47.054Z,37.4
2017-05-18T14:20:05.707Z,37.4
2017-05-18T14:21:24.363Z,37.3
2017-05-18T14:22:43.020Z,37.3
2017-05-18T14:24:01.733Z,37.3
2017-05-18T14:25:20.384Z,37.3
2017-05-18T14:26:39.067Z,37.2
2017-05-18T14:27:57.720Z,37.2
2017-05-18T14:29:16.384Z,37.1
2017-05-18T14:30:35.097Z,37.1
2017-05-18T14:31:53.804Z,37.2
2017-05-18T14:33:12.469Z,37.3
2017-05-18T14:34:31.168Z,37.2
2017-05-18T14:35:49.829Z,37.2
2017-05-18T14:37:08.482Z,37.3
2017-05-18T14:38:27.150Z,37.2
2017-05-18T14:39:45.819Z,37.1
2017-05-18T14:41:04.476Z,37.1
2017-05-18T14:42:23.132Z,37.1
2017-05-18T14:43:41.842Z,37.1
2017-05-18T14:45:00.553Z,36.9
2017-05-18T14:46:19.224Z,36.9
2017-05-18T14:47:37.883Z,36.8
2017-05-18T14:48:56.579Z,36.8
2017-05-18T14:50:15.235Z,36.9
2017-05-18T14:51:33.916Z,36.8
2017-05-18T14:52:52.579Z,36.7
2017-05-18T14:54:11.234Z,36.2
2017-05-18T14:55:29.938Z,35.7
2017-05-18T14:56:48.619Z,35.2
2017-05-18T14:58:07.335Z,34.9
2017-05-18T14:59:25.992Z,34.7
2017-05-18T15:00:44.645Z,34.5
2017-05-18T15:02:03.346Z,34.4
2017-05-18T15:03:22.007Z,34.3
2017-05-18T15:04:40.669Z,34.1
2017-05-18T15:05:59.322Z,33.6
2017-05-18T15:07:17.985Z,33.3
2017-05-18T15:08:36.657Z,33
2017-05-18T15:09:55.354Z,32.7
2017-05-18T15:11:14.090Z,32.5
2017-05-18T15:12:32.749Z,32.3
2017-05-18T15:13:51.414Z,32.2
2017-05-18T15:15:10.082Z,32.2
2017-05-18T15:16:28.751Z,32
2017-05-18T15:17:47.465Z,31.6
2017-05-18T15:19:06.133Z,31.7
2017-05-18T15:20:24.807Z,31.6
2017-05-18T15:21:43.470Z,31.4
2017-05-18T15:23:02.130Z,31.4
2017-05-18T15:24:20.800Z,31.2
2017-05-18T15:25:39.477Z,31.2
2017-05-18T15:26:58.131Z,31.2
2017-05-18T15:28:16.842Z,30.9
2017-05-18T15:29:35.554Z,30.8
2017-05-18T15:30:54.209Z,30.7
2017-05-18T15:32:12.903Z,30.6
2017-05-18T15:33:31.566Z,30.6
2017-05-18T15:34:50.254Z,30.5
2017-05-18T15:36:08.936Z,30.3
2017-05-18T15:37:27.590Z,30.1
2017-05-18T15:38:46.244Z,30.1
2017-05-18T15:40:04.908Z,29.9
2017-05-18T15:41:23.562Z,29.7
2017-05-18T15:42:42.226Z,29.8
2017-05-18T15:44:00.882Z,29.8
2017-05-18T15:45:19.562Z,29.6
2017-05-18T15:46:38.221Z,29.3
2017-05-18T15:47:56.878Z,29.1
2017-05-18T15:49:15.582Z,28.8
2017-05-18T15:50:34.273Z,28.9
2017-05-18T15:51:52.925Z,28.9
2017-05-18T15:53:11.579Z,28.9
2017-05-18T15:54:30.241Z,28.9
2017-05-18T15:55:48.931Z,29.5
2017-05-18T15:57:07.592Z,30.3
2017-05-18T15:58:26.250Z,30
2017-05-18T15:59:44.914Z,29.6
2017-05-18T16:01:03.565Z,29.2
2017-05-18T16:02:22.250Z,28.8
2017-05-18T16:03:40.906Z,28.6
2017-05-18T16:04:59.581Z,29.1
2017-05-18T16:06:18.296Z,29.9
2017-05-18T16:07:36.966Z,29.8
2017-05-18T16:08:55.642Z,29.3
2017-05-18T16:10:14.301Z,28.8
2017-05-18T16:11:32.998Z,28.5
2017-05-18T16:12:51.656Z,28.3
2017-05-18T16:14:10.320Z,28.2
2017-05-18T16:15:29.018Z,28.6
2017-05-18T16:16:47.695Z,28.9
2017-05-18T16:18:06.377Z,29.1
2017-05-18T16:19:25.087Z,29
2017-05-18T16:20:43.772Z,29.1
2017-05-18T16:22:02.442Z,30.5
2017-05-18T16:23:21.106Z,32.5
2017-05-18T16:24:39.760Z,33.1
2017-05-18T16:25:58.457Z,32.3
2017-05-18T16:27:17.118Z,32.3
2017-05-18T16:28:35.799Z,33.6
2017-05-18T16:29:54.483Z,34.4
2017-05-18T16:31:13.141Z,34.4
2017-05-18T16:32:31.795Z,34.3
2017-05-18T16:33:50.456Z,34.3
2017-05-18T16:35:09.132Z,33.5
2017-05-18T16:36:27.798Z,33.4
2017-05-18T16:37:46.457Z,34.2
2017-05-18T16:39:05.105Z,34.4
2017-05-18T16:40:23.809Z,34.4
2017-05-18T16:41:42.508Z,34.5
2017-05-18T16:43:01.171Z,34.6
2017-05-18T16:44:19.833Z,34.7
2017-05-18T16:45:38.544Z,34.7
2017-05-18T16:46:57.201Z,34.5
2017-05-18T16:48:15.855Z,34.5
2017-05-18T16:49:34.567Z,34.5
2017-05-18T16:50:53.242Z,34.6
2017-05-18T16:52:11.915Z,34.6
2017-05-18T16:53:30.613Z,34.4
2017-05-18T16:54:49.295Z,34.2
2017-05-18T16:56:07.959Z,34.4
2017-05-18T16:57:26.650Z,34.6
2017-05-18T16:58:45.307Z,34.5
2017-05-18T17:00:04.004Z,34.6
2017-05-18T17:01:22.662Z,34.6
2017-05-18T17:02:41.323Z,34.6
2017-05-18T17:03:59.982Z,34.5
2017-05-18T17:05:18.641Z,34.4
2017-05-18T17:06:37.372Z,33.9
2017-05-18T17:07:56.037Z,32.1
2017-05-18T17:09:14.697Z,30.9
2017-05-18T17:10:33.354Z,30.5
2017-05-18T17:11:52.016Z,30.6
2017-05-18T17:13:10.671Z,31.2
2017-05-18T17:14:29.327Z,32.3
2017-05-18T17:15:47.993Z,33.8
2017-05-18T17:17:06.645Z,34.4
2017-05-18T17:18:25.353Z,34.5
2017-05-18T17:19:44.087Z,34.6
2017-05-18T17:21:02.761Z,34.6
2017-05-18T17:22:21.423Z,34.6
2017-05-18T17:23:40.110Z,34.4
2017-05-18T17:24:58.784Z,32.7
2017-05-18T17:26:17.445Z,31.6
2017-05-18T17:27:36.163Z,30.8
2017-05-18T17:28:54.876Z,30
2017-05-18T17:30:13.550Z,29.4
2017-05-18T17:31:32.254Z,28.8
2017-05-18T17:32:50.911Z,28.1
2017-05-18T17:34:09.574Z,27.8
2017-05-18T17:35:28.235Z,27.5